Elverta, CA (95626)

2:35 PM PST on December 18, 2014 (GMT -0800)
Rivergreen Ranch, Elverta | Change Station
CLOSE
Current Station
Personal Weather Station
Location: Elverta, CA
Elevation: 79 ft
Nearby Weather Stations

Elev 79 ft 38.72 °N, 121.42 °W | Updated 6 minutes ago

Overcast
Overcast
59.2 °F
Feels Like 59.2 °F
N
6.8
Wind Variable Wind from SSE

Today
High -- | Low -- °F
--% Chance of Precip.
Yesterday
High -- | Low -- °F
Precip. -- in
7:18 AM 4:46 PM
Waning Crescent, 12% visible
Pressure 30.17 in
Visibility 9.0 miles
Clouds Few 3100 ft
Overcast 4600 ft
Dew Point 50 °F
Humidity 72%
Rainfall 0.00 in
Snow Depth Not available.
UV 0 out of 12
Pollen 1.80 out of 12
Air Quality Not available.
Flu Activity Not available.
METAR KMCC 182215Z AUTO 13007KT 9SM FEW031 OVC046 14/08 A3017 RMK AO2

More Conditions Fewer Conditions

Pressure 30.17 in
Visibility 9.0 miles
Clouds Few 3100 ft
Overcast 4600 ft
Dew Point 50 °F
Humidity 72%
Rainfall 0.00 in
Snow Depth Not available.
UV 0 out of 12
Pollen 1.80 out of 12
Air Quality Not available.
Flu Activity Not available.
METAR KMCC 182215Z AUTO 13007KT 9SM FEW031 OVC046 14/08 A3017 RMK AO2

More Conditions Fewer Conditions

10-Day Weather Forecast

Almanac

Astronomy

Dec. 18, 2014 Rise Set
Actual Time
Civil Twilight
Nautical Twilight
Astronomical Twilight
Moon
Length of Visible Light
Length of Day
Tomorrow will be .
, % of the Moon is Illuminated

Today's Extremes

State Highs State Lows

Community

WunderPhotos

Upload Photos

1,779,010 photos uploaded!

WunderBlogs® & News

Nearby

Air Quality

  Air Quality AQ Index Pollutant
Not available.

Snow Depth

Station Depth Elevation

Earthquake Activity

City Distance Mag. Time & Date
Minimum magnitude displayed is 2.5.

Coastal Water Temperatures

Place Temperature

Nearby Weather Stations